Terminal Aerodrome Forecast
Issued by NWS Sterling, VA

Current Version | Previous Version | Text Only | Print | Product List | Glossary On
Versions: 1 2 3 4 5 6 7 8 9 10 11 12 13 14 15 16 17 18 19 20 21 22 23 24
000
FTUS41 KLWX 261723
TAFIAD
TAF
KIAD 261723Z 2618/2724 15006KT P6SM FEW200
     FM270800 16004KT 6SM BR SCT050
     FM271200 18008KT P6SM BKN200
     FM271900 18008KT P6SM BKN050 BKN100=

USA.gov is the U.S. government's official web portal to all federal, state and local government web resources and services.